CYQY

Sydney / J.A. Douglas McCurdy Airport

Sydney, Nova Scotia, Canada
METAR CYQY 170700Z 27012G18KT 15SM SCT036 M07/M11 A2961 RMK SC4 SLP033
Observed Flight Rules
Dec-17 @ 07:00 UTC (an hour ago) Visual Flight Rules
Wind Visibility Clouds
270° at 12 knots
 Gusting to 18 knots
15 miles
  • Scattered at 3,600' AGL
Temperatures Readings
Current -7°C / 19°F
Dewpoint -11°C / 12°F
Humidity 73%
Altimeter 29.61" Hg
Pressure 1003.3 hPa
Elevation 62
METAR CYQY 170700Z 27012G18KT 15SM SCT036 M07/M11 A2961 RMK SC4 SLP033
Observed Flight Rules
Dec-17 @ 07:00 UTC
(an hour ago)
VFR
Wind Visibility
270° at 12 knots
 Gusting to 18 knots
15 miles
Clouds
  • Scattered at 3,600' AGL
Temperature Dewpoint
-7°C / 19°F -11°C / 12°F
Humidity Altimeter Pressure
73% 29.61" Hg 1003.3 hPa